Time,TemperatureF,DewpointF,PressureIn,WindDirection,WindDirectionDegrees,WindSpeedMPH,WindSpeedGustMPH,Humidity,HourlyPrecipIn,Conditions,Clouds,dailyrainin,SoftwareType,DateUTC
2013-10-07 00:11:00,74.5,69.0,29.57,South,180,2.2,-999.0,83,-99.99,,,0.00,Acu-Link.com,2013-10-07 04:11:00,
2013-10-07 00:26:00,75.0,68.8,29.56,East,90,5.3,-999.0,81,-99.99,,,0.00,Acu-Link.com,2013-10-07 04:26:00,
2013-10-07 00:42:00,75.0,68.0,29.57,SSW,202,6.8,-999.0,79,-99.99,,,0.00,Acu-Link.com,2013-10-07 04:42:00,
2013-10-07 00:57:00,75.0,68.0,29.55,WNW,292,4.2,-999.0,79,-99.99,,,0.00,Acu-Link.com,2013-10-07 04:57:00,
2013-10-07 01:13:00,75.4,68.0,29.55,South,180,1.7,-999.0,78,-99.99,,,0.00,Acu-Link.com,2013-10-07 05:13:00,
2013-10-07 01:28:00,75.2,67.5,29.57,WSW,247,2.2,-999.0,77,-99.99,,,0.00,Acu-Link.com,2013-10-07 05:28:00,
2013-10-07 01:45:00,74.7,67.4,29.55,NNE,22,2.7,-999.0,78,-99.99,,,0.00,Acu-Link.com,2013-10-07 05:45:00,
2013-10-07 02:00:00,74.3,67.4,29.55,SSW,202,0.0,-999.0,79,-99.99,,,0.00,Acu-Link.com,2013-10-07 06:00:00,
2013-10-07 02:15:00,72.9,68.1,29.57,East,90,3.2,-999.0,85,-99.99,,,0.00,Acu-Link.com,2013-10-07 06:15:00,
2013-10-07 02:31:00,72.5,68.1,29.56,SW,225,0.0,-999.0,86,-99.99,,,0.00,Acu-Link.com,2013-10-07 06:31:00,
2013-10-07 02:46:00,70.7,67.9,29.56,SSW,202,1.1,-999.0,91,-99.99,,,0.00,Acu-Link.com,2013-10-07 06:46:00,
2013-10-07 03:02:00,70.0,68.2,29.56,South,180,1.7,-999.0,94,-99.99,,,0.00,Acu-Link.com,2013-10-07 07:02:00,
2013-10-07 03:17:00,69.8,69.2,29.56,South,180,2.7,-999.0,98,-99.99,,,0.00,Acu-Link.com,2013-10-07 07:17:00,
2013-10-07 03:32:00,68.9,68.3,29.56,West,270,1.7,-999.0,98,-99.99,,,0.00,Acu-Link.com,2013-10-07 07:32:00,
2013-10-07 03:48:00,68.9,68.3,29.55,SW,225,0.0,-999.0,98,-99.99,,,0.00,Acu-Link.com,2013-10-07 07:48:00,
2013-10-07 04:03:00,68.7,68.1,29.54,SW,225,0.0,-999.0,98,-99.99,,,0.00,Acu-Link.com,2013-10-07 08:03:00,
2013-10-07 04:23:00,68.5,67.9,29.55,ESE,112,2.2,-999.0,98,-99.99,,,0.00,Acu-Link.com,2013-10-07 08:23:00,
2013-10-07 04:38:00,67.5,66.9,29.54,South,180,2.2,-999.0,98,-99.99,,,0.00,Acu-Link.com,2013-10-07 08:38:00,
2013-10-07 04:54:00,67.1,66.5,29.54,SSW,202,1.7,-999.0,98,-99.99,,,0.00,Acu-Link.com,2013-10-07 08:54:00,
2013-10-07 05:09:00,66.6,66.0,29.54,West,270,1.7,-999.0,98,-99.99,,,0.00,Acu-Link.com,2013-10-07 09:09:00,
2013-10-07 05:24:00,65.8,65.2,29.54,ENE,67,4.2,-999.0,98,-99.99,,,0.00,Acu-Link.com,2013-10-07 09:24:00,
2013-10-07 05:39:00,62.2,61.6,29.57,WNW,292,2.7,-999.0,98,-99.99,,,0.00,Acu-Link.com,2013-10-07 09:39:00,
2013-10-07 05:55:00,61.3,60.7,29.56,West,270,2.2,-999.0,98,-99.99,,,0.00,Acu-Link.com,2013-10-07 09:55:00,
2013-10-07 06:10:00,60.8,60.2,29.57,NNE,22,0.0,-999.0,98,-99.99,,,0.00,Acu-Link.com,2013-10-07 10:10:00,
2013-10-07 06:25:00,60.3,59.7,29.57,West,270,0.0,-999.0,98,-99.99,,,0.01,Acu-Link.com,2013-10-07 10:25:00,
2013-10-07 06:41:00,59.7,59.1,29.57,WNW,292,1.7,-999.0,98,-99.99,,,0.02,Acu-Link.com,2013-10-07 10:41:00,
2013-10-07 06:56:00,59.5,58.9,29.57,SW,225,0.0,-999.0,98,-99.99,,,0.06,Acu-Link.com,2013-10-07 10:56:00,
2013-10-07 07:11:00,59.2,58.6,29.58,SE,135,0.0,-999.0,98,-99.99,,,0.17,Acu-Link.com,2013-10-07 11:11:00,
2013-10-07 07:26:00,59.0,58.4,29.57,East,90,2.2,-999.0,98,-99.99,,,0.23,Acu-Link.com,2013-10-07 11:26:00,
2013-10-07 07:42:00,59.0,58.4,29.57,South,180,1.1,-999.0,98,-99.99,,,0.25,Acu-Link.com,2013-10-07 11:42:00,
2013-10-07 07:57:00,58.8,58.2,29.57,SSW,202,1.7,-999.0,98,-99.99,,,0.28,Acu-Link.com,2013-10-07 11:57:00,
2013-10-07 08:12:00,58.8,58.2,29.57,SSW,202,2.7,-999.0,98,-99.99,,,0.31,Acu-Link.com,2013-10-07 12:12:00,
2013-10-07 08:27:00,58.8,58.2,29.58,SSE,157,1.1,-999.0,98,-99.99,,,0.34,Acu-Link.com,2013-10-07 12:27:00,
2013-10-07 08:43:00,59.2,58.6,29.57,South,180,0.0,-999.0,98,-99.99,,,0.38,Acu-Link.com,2013-10-07 12:43:00,
2013-10-07 08:58:00,59.2,58.6,29.56,East,90,2.7,-999.0,98,-99.99,,,0.43,Acu-Link.com,2013-10-07 12:58:00,
2013-10-07 09:13:00,59.2,58.6,29.57,ENE,67,2.2,-999.0,98,-99.99,,,0.46,Acu-Link.com,2013-10-07 13:13:00,
2013-10-07 09:28:00,59.2,58.6,29.57,West,270,1.7,-999.0,98,-99.99,,,0.48,Acu-Link.com,2013-10-07 13:28:00,
2013-10-07 09:43:00,58.5,57.9,29.59,NE,45,1.1,-999.0,98,-99.99,,,0.53,Acu-Link.com,2013-10-07 13:43:00,
2013-10-07 09:59:00,58.3,57.7,29.59,SW,225,1.7,-999.0,98,-99.99,,,0.55,Acu-Link.com,2013-10-07 13:59:00,
2013-10-07 10:14:00,58.1,57.5,29.59,NE,45,2.7,-999.0,98,-99.99,,,0.58,Acu-Link.com,2013-10-07 14:14:00,
2013-10-07 10:29:00,57.6,57.0,29.60,ESE,112,1.7,-999.0,98,-99.99,,,0.64,Acu-Link.com,2013-10-07 14:29:00,
2013-10-07 10:45:00,57.0,56.4,29.59,NE,45,2.7,-999.0,98,-99.99,,,0.74,Acu-Link.com,2013-10-07 14:45:00,
2013-10-07 11:00:00,56.8,56.2,29.59,SW,225,0.0,-999.0,98,-99.99,,,0.75,Acu-Link.com,2013-10-07 15:00:00,
2013-10-07 11:15:00,56.8,56.2,29.59,SW,225,4.2,-999.0,98,-99.99,,,0.76,Acu-Link.com,2013-10-07 15:15:00,
2013-10-07 11:30:00,55.9,55.3,29.59,SSW,202,5.3,-999.0,98,-99.99,,,0.76,Acu-Link.com,2013-10-07 15:30:00,
2013-10-07 11:46:00,56.3,55.7,29.60,North,0,4.2,-999.0,98,-99.99,,,0.76,Acu-Link.com,2013-10-07 15:46:00,
2013-10-07 12:01:00,56.3,55.7,29.60,ESE,112,2.2,-999.0,98,-99.99,,,0.76,Acu-Link.com,2013-10-07 16:01:00,
2013-10-07 12:16:00,58.1,55.5,29.60,ENE,67,3.2,-999.0,91,-99.99,,,0.76,Acu-Link.com,2013-10-07 16:16:00,
2013-10-07 12:31:00,58.1,53.9,29.60,WSW,247,2.7,-999.0,86,-99.99,,,0.76,Acu-Link.com,2013-10-07 16:31:00,
2013-10-07 12:47:00,57.0,52.5,29.60,North,0,2.7,-999.0,85,-99.99,,,0.76,Acu-Link.com,2013-10-07 16:47:00,
2013-10-07 13:02:00,57.2,52.4,29.61,WNW,292,2.2,-999.0,84,-99.99,,,0.76,Acu-Link.com,2013-10-07 17:02:00,
2013-10-07 13:17:00,56.8,50.7,29.61,SE,135,4.2,-999.0,80,-99.99,,,0.76,Acu-Link.com,2013-10-07 17:17:00,
2013-10-07 13:32:00,55.9,50.2,29.60,ESE,112,1.7,-999.0,81,-99.99,,,0.76,Acu-Link.com,2013-10-07 17:32:00,
2013-10-07 13:47:00,56.3,52.2,29.60,WSW,247,3.7,-999.0,86,-99.99,,,0.76,Acu-Link.com,2013-10-07 17:47:00,
2013-10-07 14:02:00,57.2,54.3,29.61,East,90,1.7,-999.0,90,-99.99,,,0.76,Acu-Link.com,2013-10-07 18:02:00,
2013-10-07 14:17:00,58.1,54.9,29.59,East,90,4.2,-999.0,89,-99.99,,,0.76,Acu-Link.com,2013-10-07 18:17:00,
2013-10-07 14:33:00,60.6,55.7,29.60,WSW,247,3.2,-999.0,84,-99.99,,,0.76,Acu-Link.com,2013-10-07 18:33:00,
2013-10-07 14:48:00,58.6,54.4,29.61,West,270,5.3,-999.0,86,-99.99,,,0.76,Acu-Link.com,2013-10-07 18:48:00,
2013-10-07 15:03:00,55.9,53.6,29.64,WSW,247,2.2,-999.0,92,-99.99,,,0.78,Acu-Link.com,2013-10-07 19:03:00,
2013-10-07 15:18:00,56.1,54.1,29.64,West,270,2.2,-999.0,93,-99.99,,,0.78,Acu-Link.com,2013-10-07 19:18:00,
2013-10-07 15:34:00,55.4,54.8,29.66,SSE,157,2.7,-999.0,98,-99.99,,,0.80,Acu-Link.com,2013-10-07 19:34:00,
2013-10-07 15:49:00,56.1,53.2,29.66,West,270,4.7,-999.0,90,-99.99,,,0.80,Acu-Link.com,2013-10-07 19:49:00,
2013-10-07 16:04:00,58.3,52.5,29.66,SSW,202,2.7,-999.0,81,-99.99,,,0.80,Acu-Link.com,2013-10-07 20:04:00,
2013-10-07 16:19:00,59.9,53.0,29.67,NNW,337,2.2,-999.0,78,-99.99,,,0.80,Acu-Link.com,2013-10-07 20:19:00,
2013-10-07 16:35:00,59.0,52.1,29.68,SW,225,2.2,-999.0,78,-99.99,,,0.80,Acu-Link.com,2013-10-07 20:35:00,
2013-10-07 16:50:00,58.6,52.1,29.67,SW,225,2.2,-999.0,79,-99.99,,,0.80,Acu-Link.com,2013-10-07 20:50:00,
2013-10-07 17:05:00,58.6,51.4,29.67,NNE,22,2.7,-999.0,77,-99.99,,,0.80,Acu-Link.com,2013-10-07 21:05:00,
2013-10-07 17:20:00,59.0,51.4,29.70,WSW,247,4.2,-999.0,76,-99.99,,,0.80,Acu-Link.com,2013-10-07 21:20:00,
2013-10-07 17:36:00,58.5,51.3,29.70,SW,225,2.2,-999.0,77,-99.99,,,0.80,Acu-Link.com,2013-10-07 21:36:00,
2013-10-07 17:51:00,58.3,51.1,29.71,West,270,2.7,-999.0,77,-99.99,,,0.80,Acu-Link.com,2013-10-07 21:51:00,
2013-10-07 18:06:00,58.3,51.1,29.72,SW,225,1.7,-999.0,77,-99.99,,,0.80,Acu-Link.com,2013-10-07 22:06:00,
2013-10-07 18:21:00,57.9,51.1,29.74,West,270,2.2,-999.0,78,-99.99,,,0.80,Acu-Link.com,2013-10-07 22:21:00,
2013-10-07 18:37:00,57.6,51.5,29.73,WNW,292,1.7,-999.0,80,-99.99,,,0.80,Acu-Link.com,2013-10-07 22:37:00,
2013-10-07 18:52:00,57.4,50.6,29.74,WNW,292,1.1,-999.0,78,-99.99,,,0.80,Acu-Link.com,2013-10-07 22:52:00,
2013-10-07 19:07:00,57.2,50.7,29.75,West,270,2.2,-999.0,79,-99.99,,,0.80,Acu-Link.com,2013-10-07 23:07:00,
2013-10-07 19:22:00,57.0,51.2,29.77,SW,225,1.7,-999.0,81,-99.99,,,0.80,Acu-Link.com,2013-10-07 23:22:00,
2013-10-07 19:38:00,56.8,51.4,29.78,West,270,6.3,-999.0,82,-99.99,,,0.80,Acu-Link.com,2013-10-07 23:38:00,
2013-10-07 19:53:00,56.1,53.5,29.81,ESE,112,2.2,-999.0,91,-99.99,,,0.80,Acu-Link.com,2013-10-07 23:53:00,
2013-10-07 20:08:00,54.7,53.0,29.81,WSW,247,2.7,-999.0,94,-99.99,,,0.80,Acu-Link.com,2013-10-08 00:08:00,
2013-10-07 20:23:00,54.0,53.4,29.82,WSW,247,1.7,-999.0,98,-99.99,,,0.80,Acu-Link.com,2013-10-08 00:23:00,
2013-10-07 20:39:00,53.8,53.2,29.84,WSW,247,0.0,-999.0,98,-99.99,,,0.80,Acu-Link.com,2013-10-08 00:39:00,
2013-10-07 20:54:00,53.1,52.5,29.85,WSW,247,0.0,-999.0,98,-99.99,,,0.80,Acu-Link.com,2013-10-08 00:54:00,
2013-10-07 21:09:00,52.5,52.0,29.86,WSW,247,1.1,-999.0,98,-99.99,,,0.80,Acu-Link.com,2013-10-08 01:09:00,
2013-10-07 21:25:00,51.8,51.3,29.87,West,270,0.0,-999.0,98,-99.99,,,0.80,Acu-Link.com,2013-10-08 01:25:00,
2013-10-07 21:40:00,51.4,50.9,29.88,West,270,0.0,-999.0,98,-99.99,,,0.80,Acu-Link.com,2013-10-08 01:40:00,
2013-10-07 21:55:00,51.4,50.9,29.89,WNW,292,0.0,-999.0,98,-99.99,,,0.80,Acu-Link.com,2013-10-08 01:55:00,
2013-10-07 22:10:00,50.9,50.4,29.90,SSE,157,0.0,-999.0,98,-99.99,,,0.80,Acu-Link.com,2013-10-08 02:10:00,
2013-10-07 22:26:00,50.0,49.5,29.92,ESE,112,0.0,-999.0,98,-99.99,,,0.80,Acu-Link.com,2013-10-08 02:26:00,
2013-10-07 22:41:00,49.8,49.3,29.93,SW,225,0.0,-999.0,98,-99.99,,,0.80,Acu-Link.com,2013-10-08 02:41:00,
2013-10-07 22:56:00,49.1,48.6,29.93,SW,225,0.0,-999.0,98,-99.99,,,0.80,Acu-Link.com,2013-10-08 02:56:00,
2013-10-07 23:12:00,48.9,48.4,29.95,SW,225,0.0,-999.0,98,-99.99,,,0.80,Acu-Link.com,2013-10-08 03:12:00,
2013-10-07 23:27:00,48.4,47.9,29.95,SW,225,0.0,-999.0,98,-99.99,,,0.80,Acu-Link.com,2013-10-08 03:27:00,
2013-10-07 23:42:00,48.2,47.7,29.96,SW,225,0.0,-999.0,98,-99.99,,,0.80,Acu-Link.com,2013-10-08 03:42:00,
2013-10-07 23:58:00,48.2,47.7,29.96,SW,225,0.0,-999.0,98,-99.99,,,0.80,Acu-Link.com,2013-10-08 03:58:00,